sensor_id;sensor_type;location;lat;lon;timestamp;P1;durP1;ratioP1;P2;durP2;ratioP2
32216;SDS011;67098;51.140;4.088;2023-04-28T00:00:49;28.17;;;14.60;;
32216;SDS011;67098;51.140;4.088;2023-04-28T00:03:15;28.67;;;14.13;;
32216;SDS011;67098;51.140;4.088;2023-04-28T00:05:41;28.23;;;14.63;;
32216;SDS011;67098;51.140;4.088;2023-04-28T00:08:07;24.05;;;13.52;;
32216;SDS011;67098;51.140;4.088;2023-04-28T00:10:32;27.13;;;14.30;;
32216;SDS011;67098;51.140;4.088;2023-04-28T00:12:59;29.08;;;14.13;;
32216;SDS011;67098;51.140;4.088;2023-04-28T00:15:25;24.38;;;13.30;;
32216;SDS011;67098;51.140;4.088;2023-04-28T00:17:51;29.30;;;13.95;;
32216;SDS011;67098;51.140;4.088;2023-04-28T00:20:17;21.45;;;13.57;;
32216;SDS011;67098;51.140;4.088;2023-04-28T00:22:43;26.52;;;13.32;;
32216;SDS011;67098;51.140;4.088;2023-04-28T00:25:08;27.63;;;13.63;;
32216;SDS011;67098;51.140;4.088;2023-04-28T00:27:34;26.17;;;13.80;;
32216;SDS011;67098;51.140;4.088;2023-04-28T00:30:00;25.58;;;13.43;;
32216;SDS011;67098;51.140;4.088;2023-04-28T00:32:26;25.95;;;13.80;;
32216;SDS011;67098;51.140;4.088;2023-04-28T00:34:52;40.35;;;14.70;;
32216;SDS011;67098;51.140;4.088;2023-04-28T00:37:18;25.45;;;13.23;;
32216;SDS011;67098;51.140;4.088;2023-04-28T00:39:44;24.65;;;13.00;;
32216;SDS011;67098;51.140;4.088;2023-04-28T00:42:11;25.98;;;13.45;;
32216;SDS011;67098;51.140;4.088;2023-04-28T00:44:37;31.67;;;13.73;;
32216;SDS011;67098;51.140;4.088;2023-04-28T00:47:04;34.20;;;14.73;;
32216;SDS011;67098;51.140;4.088;2023-04-28T00:49:30;30.67;;;13.60;;
32216;SDS011;67098;51.140;4.088;2023-04-28T00:51:58;25.73;;;13.32;;
32216;SDS011;67098;51.140;4.088;2023-04-28T00:54:27;26.92;;;13.85;;
32216;SDS011;67098;51.140;4.088;2023-04-28T00:56:53;25.40;;;13.52;;
32216;SDS011;67098;51.140;4.088;2023-04-28T00:59:19;26.38;;;14.32;;
32216;SDS011;67098;51.140;4.088;2023-04-28T01:01:45;32.22;;;15.05;;
32216;SDS011;67098;51.140;4.088;2023-04-28T01:04:10;26.55;;;14.10;;
32216;SDS011;67098;51.140;4.088;2023-04-28T01:06:36;30.95;;;14.70;;
32216;SDS011;67098;51.140;4.088;2023-04-28T01:09:02;27.52;;;15.05;;
32216;SDS011;67098;51.140;4.088;2023-04-28T01:11:30;29.52;;;14.82;;
32216;SDS011;67098;51.140;4.088;2023-04-28T01:13:55;29.88;;;13.98;;
32216;SDS011;67098;51.140;4.088;2023-04-28T01:16:23;25.48;;;15.35;;
32216;SDS011;67098;51.140;4.088;2023-04-28T01:18:50;27.42;;;14.52;;
32216;SDS011;67098;51.140;4.088;2023-04-28T01:21:24;29.08;;;14.57;;
32216;SDS011;67098;51.140;4.088;2023-04-28T01:23:56;28.98;;;15.75;;
32216;SDS011;67098;51.140;4.088;2023-04-28T01:26:23;26.17;;;14.98;;
32216;SDS011;67098;51.140;4.088;2023-04-28T01:28:49;31.60;;;15.02;;
32216;SDS011;67098;51.140;4.088;2023-04-28T01:31:15;27.33;;;14.52;;
32216;SDS011;67098;51.140;4.088;2023-04-28T01:33:40;28.75;;;15.05;;
32216;SDS011;67098;51.140;4.088;2023-04-28T01:36:06;28.73;;;14.88;;
32216;SDS011;67098;51.140;4.088;2023-04-28T01:38:32;26.35;;;15.52;;
32216;SDS011;67098;51.140;4.088;2023-04-28T01:40:58;33.22;;;16.98;;
32216;SDS011;67098;51.140;4.088;2023-04-28T01:43:24;34.00;;;16.73;;
32216;SDS011;67098;51.140;4.088;2023-04-28T01:45:50;32.97;;;16.77;;
32216;SDS011;67098;51.140;4.088;2023-04-28T01:48:15;27.33;;;15.82;;
32216;SDS011;67098;51.140;4.088;2023-04-28T01:50:41;33.60;;;16.58;;
32216;SDS011;67098;51.140;4.088;2023-04-28T01:53:07;35.55;;;16.48;;
32216;SDS011;67098;51.140;4.088;2023-04-28T01:55:33;29.33;;;16.50;;
32216;SDS011;67098;51.140;4.088;2023-04-28T01:57:58;30.38;;;16.75;;
32216;SDS011;67098;51.140;4.088;2023-04-28T02:00:24;29.45;;;16.30;;
32216;SDS011;67098;51.140;4.088;2023-04-28T02:02:51;29.30;;;16.95;;
32216;SDS011;67098;51.140;4.088;2023-04-28T02:05:16;29.55;;;18.33;;
32216;SDS011;67098;51.140;4.088;2023-04-28T02:07:42;34.10;;;17.05;;
32216;SDS011;67098;51.140;4.088;2023-04-28T02:10:08;32.67;;;16.92;;
32216;SDS011;67098;51.140;4.088;2023-04-28T02:12:34;34.50;;;18.25;;
32216;SDS011;67098;51.140;4.088;2023-04-28T02:15:00;34.30;;;17.30;;
32216;SDS011;67098;51.140;4.088;2023-04-28T02:17:28;30.63;;;17.58;;
32216;SDS011;67098;51.140;4.088;2023-04-28T02:19:54;35.97;;;18.42;;
32216;SDS011;67098;51.140;4.088;2023-04-28T02:22:23;30.50;;;17.75;;
32216;SDS011;67098;51.140;4.088;2023-04-28T02:24:49;31.17;;;17.60;;
32216;SDS011;67098;51.140;4.088;2023-04-28T02:27:15;30.88;;;17.35;;
32216;SDS011;67098;51.140;4.088;2023-04-28T02:29:41;33.15;;;18.27;;
32216;SDS011;67098;51.140;4.088;2023-04-28T02:32:06;34.03;;;17.55;;
32216;SDS011;67098;51.140;4.088;2023-04-28T02:34:32;33.03;;;17.40;;
32216;SDS011;67098;51.140;4.088;2023-04-28T02:36:58;34.83;;;18.83;;
32216;SDS011;67098;51.140;4.088;2023-04-28T02:39:24;35.40;;;18.05;;
32216;SDS011;67098;51.140;4.088;2023-04-28T02:41:54;34.17;;;18.08;;
32216;SDS011;67098;51.140;4.088;2023-04-28T02:44:20;35.53;;;18.48;;
32216;SDS011;67098;51.140;4.088;2023-04-28T02:46:46;31.77;;;18.45;;
32216;SDS011;67098;51.140;4.088;2023-04-28T02:49:12;33.10;;;18.02;;
32216;SDS011;67098;51.140;4.088;2023-04-28T02:51:38;31.27;;;17.42;;
32216;SDS011;67098;51.140;4.088;2023-04-28T02:54:04;37.53;;;18.65;;
32216;SDS011;67098;51.140;4.088;2023-04-28T02:56:29;35.20;;;19.08;;
32216;SDS011;67098;51.140;4.088;2023-04-28T02:58:55;36.47;;;19.77;;
32216;SDS011;67098;51.140;4.088;2023-04-28T03:01:21;38.63;;;20.73;;
32216;SDS011;67098;51.140;4.088;2023-04-28T03:03:47;32.15;;;19.45;;
32216;SDS011;67098;51.140;4.088;2023-04-28T03:06:13;36.83;;;19.02;;
32216;SDS011;67098;51.140;4.088;2023-04-28T03:08:38;33.53;;;19.75;;
32216;SDS011;67098;51.140;4.088;2023-04-28T03:11:04;38.15;;;20.00;;
32216;SDS011;67098;51.140;4.088;2023-04-28T03:13:30;33.63;;;20.30;;
32216;SDS011;67098;51.140;4.088;2023-04-28T03:15:56;37.22;;;19.50;;
32216;SDS011;67098;51.140;4.088;2023-04-28T03:18:21;35.47;;;20.10;;
32216;SDS011;67098;51.140;4.088;2023-04-28T03:20:47;34.00;;;19.25;;
32216;SDS011;67098;51.140;4.088;2023-04-28T03:23:14;35.92;;;18.90;;
32216;SDS011;67098;51.140;4.088;2023-04-28T03:25:39;40.22;;;19.75;;
32216;SDS011;67098;51.140;4.088;2023-04-28T03:28:05;34.67;;;19.13;;
32216;SDS011;67098;51.140;4.088;2023-04-28T03:30:31;35.50;;;20.00;;
32216;SDS011;67098;51.140;4.088;2023-04-28T03:32:57;32.80;;;19.25;;
32216;SDS011;67098;51.140;4.088;2023-04-28T03:35:22;35.95;;;18.73;;
32216;SDS011;67098;51.140;4.088;2023-04-28T03:37:48;33.22;;;19.23;;
32216;SDS011;67098;51.140;4.088;2023-04-28T03:40:14;34.88;;;20.65;;
32216;SDS011;67098;51.140;4.088;2023-04-28T03:42:40;39.88;;;20.50;;
32216;SDS011;67098;51.140;4.088;2023-04-28T03:45:06;35.45;;;20.25;;
32216;SDS011;67098;51.140;4.088;2023-04-28T03:47:32;34.10;;;19.50;;
32216;SDS011;67098;51.140;4.088;2023-04-28T03:49:58;38.15;;;19.70;;
32216;SDS011;67098;51.140;4.088;2023-04-28T03:52:24;37.05;;;20.65;;
32216;SDS011;67098;51.140;4.088;2023-04-28T03:54:50;36.22;;;20.38;;
32216;SDS011;67098;51.140;4.088;2023-04-28T03:57:16;36.70;;;20.70;;
32216;SDS011;67098;51.140;4.088;2023-04-28T03:59:42;37.20;;;20.33;;
32216;SDS011;67098;51.140;4.088;2023-04-28T04:02:07;38.15;;;22.92;;
32216;SDS011;67098;51.140;4.088;2023-04-28T04:04:33;46.40;;;23.80;;
32216;SDS011;67098;51.140;4.088;2023-04-28T04:06:59;37.50;;;22.60;;
32216;SDS011;67098;51.140;4.088;2023-04-28T04:09:25;45.20;;;22.85;;
32216;SDS011;67098;51.140;4.088;2023-04-28T04:11:51;45.40;;;24.33;;
32216;SDS011;67098;51.140;4.088;2023-04-28T04:14:16;42.58;;;22.50;;
32216;SDS011;67098;51.140;4.088;2023-04-28T04:16:42;43.78;;;25.42;;
32216;SDS011;67098;51.140;4.088;2023-04-28T04:19:08;40.33;;;24.15;;
32216;SDS011;67098;51.140;4.088;2023-04-28T04:21:33;43.03;;;23.38;;
32216;SDS011;67098;51.140;4.088;2023-04-28T04:23:59;45.28;;;24.42;;
32216;SDS011;67098;51.140;4.088;2023-04-28T04:26:25;40.75;;;23.88;;
32216;SDS011;67098;51.140;4.088;2023-04-28T04:28:51;44.58;;;24.25;;
32216;SDS011;67098;51.140;4.088;2023-04-28T04:31:17;44.17;;;24.80;;
32216;SDS011;67098;51.140;4.088;2023-04-28T04:33:44;41.53;;;23.73;;
32216;SDS011;67098;51.140;4.088;2023-04-28T04:36:09;42.10;;;23.70;;
32216;SDS011;67098;51.140;4.088;2023-04-28T04:38:35;41.95;;;24.48;;
32216;SDS011;67098;51.140;4.088;2023-04-28T04:41:01;43.15;;;23.85;;
32216;SDS011;67098;51.140;4.088;2023-04-28T04:43:26;37.58;;;23.70;;
32216;SDS011;67098;51.140;4.088;2023-04-28T04:45:52;44.20;;;24.05;;
32216;SDS011;67098;51.140;4.088;2023-04-28T04:48:18;46.22;;;25.17;;
32216;SDS011;67098;51.140;4.088;2023-04-28T04:50:45;42.42;;;25.23;;
32216;SDS011;67098;51.140;4.088;2023-04-28T04:53:11;44.17;;;25.23;;
32216;SDS011;67098;51.140;4.088;2023-04-28T04:55:36;44.63;;;26.40;;
32216;SDS011;67098;51.140;4.088;2023-04-28T04:58:02;46.70;;;25.92;;
32216;SDS011;67098;51.140;4.088;2023-04-28T05:00:28;45.67;;;26.83;;
32216;SDS011;67098;51.140;4.088;2023-04-28T05:02:54;43.80;;;26.00;;
32216;SDS011;67098;51.140;4.088;2023-04-28T05:05:20;46.10;;;27.05;;
32216;SDS011;67098;51.140;4.088;2023-04-28T05:07:45;45.83;;;26.35;;
32216;SDS011;67098;51.140;4.088;2023-04-28T05:10:11;49.45;;;28.50;;
32216;SDS011;67098;51.140;4.088;2023-04-28T05:12:37;46.78;;;27.90;;
32216;SDS011;67098;51.140;4.088;2023-04-28T05:15:04;46.58;;;27.20;;
32216;SDS011;67098;51.140;4.088;2023-04-28T05:17:30;46.47;;;27.17;;
32216;SDS011;67098;51.140;4.088;2023-04-28T05:19:56;50.17;;;28.35;;
32216;SDS011;67098;51.140;4.088;2023-04-28T05:22:22;46.90;;;26.27;;
32216;SDS011;67098;51.140;4.088;2023-04-28T05:24:48;49.47;;;27.15;;
32216;SDS011;67098;51.140;4.088;2023-04-28T05:27:13;48.72;;;26.20;;
32216;SDS011;67098;51.140;4.088;2023-04-28T05:29:39;44.38;;;26.05;;
32216;SDS011;67098;51.140;4.088;2023-04-28T05:32:05;48.28;;;26.80;;
32216;SDS011;67098;51.140;4.088;2023-04-28T05:34:31;46.47;;;26.42;;
32216;SDS011;67098;51.140;4.088;2023-04-28T05:36:56;47.85;;;26.70;;
32216;SDS011;67098;51.140;4.088;2023-04-28T05:39:22;51.80;;;28.15;;
32216;SDS011;67098;51.140;4.088;2023-04-28T05:41:48;48.03;;;27.95;;
32216;SDS011;67098;51.140;4.088;2023-04-28T05:44:13;47.45;;;27.52;;
32216;SDS011;67098;51.140;4.088;2023-04-28T05:46:39;51.25;;;28.45;;
32216;SDS011;67098;51.140;4.088;2023-04-28T05:49:05;47.30;;;27.80;;
32216;SDS011;67098;51.140;4.088;2023-04-28T05:51:31;48.75;;;28.02;;
32216;SDS011;67098;51.140;4.088;2023-04-28T05:53:57;50.90;;;28.02;;
32216;SDS011;67098;51.140;4.088;2023-04-28T05:56:23;45.55;;;27.35;;
32216;SDS011;67098;51.140;4.088;2023-04-28T05:58:49;51.40;;;29.27;;
32216;SDS011;67098;51.140;4.088;2023-04-28T06:01:15;49.42;;;27.63;;
32216;SDS011;67098;51.140;4.088;2023-04-28T06:03:41;47.75;;;28.08;;
32216;SDS011;67098;51.140;4.088;2023-04-28T06:06:10;54.13;;;27.88;;
32216;SDS011;67098;51.140;4.088;2023-04-28T06:08:36;46.15;;;27.50;;
32216;SDS011;67098;51.140;4.088;2023-04-28T06:11:02;50.42;;;28.95;;
32216;SDS011;67098;51.140;4.088;2023-04-28T06:13:28;51.53;;;27.92;;
32216;SDS011;67098;51.140;4.088;2023-04-28T06:15:53;48.83;;;26.80;;
32216;SDS011;67098;51.140;4.088;2023-04-28T06:18:19;51.80;;;28.30;;
32216;SDS011;67098;51.140;4.088;2023-04-28T06:20:45;50.83;;;28.65;;
32216;SDS011;67098;51.140;4.088;2023-04-28T06:23:11;57.10;;;30.13;;
32216;SDS011;67098;51.140;4.088;2023-04-28T06:25:37;52.92;;;29.42;;
32216;SDS011;67098;51.140;4.088;2023-04-28T06:28:03;54.53;;;31.58;;
32216;SDS011;67098;51.140;4.088;2023-04-28T06:30:28;54.22;;;30.40;;
32216;SDS011;67098;51.140;4.088;2023-04-28T06:32:54;51.35;;;29.70;;
32216;SDS011;67098;51.140;4.088;2023-04-28T06:35:21;48.17;;;29.02;;
32216;SDS011;67098;51.140;4.088;2023-04-28T06:37:47;47.95;;;28.33;;
32216;SDS011;67098;51.140;4.088;2023-04-28T06:40:13;51.10;;;28.38;;
32216;SDS011;67098;51.140;4.088;2023-04-28T06:42:39;48.78;;;27.77;;
32216;SDS011;67098;51.140;4.088;2023-04-28T06:45:05;45.20;;;27.65;;
32216;SDS011;67098;51.140;4.088;2023-04-28T06:47:31;46.28;;;28.55;;
32216;SDS011;67098;51.140;4.088;2023-04-28T06:49:57;43.30;;;26.73;;
32216;SDS011;67098;51.140;4.088;2023-04-28T06:52:23;45.03;;;25.38;;
32216;SDS011;67098;51.140;4.088;2023-04-28T06:54:49;40.83;;;25.13;;
32216;SDS011;67098;51.140;4.088;2023-04-28T06:57:15;41.47;;;24.48;;
32216;SDS011;67098;51.140;4.088;2023-04-28T06:59:41;35.75;;;23.02;;
32216;SDS011;67098;51.140;4.088;2023-04-28T07:02:08;35.03;;;22.52;;
32216;SDS011;67098;51.140;4.088;2023-04-28T07:04:34;37.10;;;21.75;;
32216;SDS011;67098;51.140;4.088;2023-04-28T07:07:01;37.20;;;23.35;;
32216;SDS011;67098;51.140;4.088;2023-04-28T07:09:27;37.63;;;22.60;;
32216;SDS011;67098;51.140;4.088;2023-04-28T07:11:52;33.13;;;20.50;;
32216;SDS011;67098;51.140;4.088;2023-04-28T07:14:19;30.35;;;19.10;;
32216;SDS011;67098;51.140;4.088;2023-04-28T07:16:44;31.13;;;19.08;;
32216;SDS011;67098;51.140;4.088;2023-04-28T07:19:10;26.92;;;17.00;;
32216;SDS011;67098;51.140;4.088;2023-04-28T07:21:36;28.40;;;17.48;;
32216;SDS011;67098;51.140;4.088;2023-04-28T07:24:01;30.50;;;18.30;;
32216;SDS011;67098;51.140;4.088;2023-04-28T07:26:27;29.60;;;17.77;;
32216;SDS011;67098;51.140;4.088;2023-04-28T07:28:53;29.83;;;18.05;;
32216;SDS011;67098;51.140;4.088;2023-04-28T07:31:18;14.77;;;10.43;;
32216;SDS011;67098;51.140;4.088;2023-04-28T07:33:45;13.32;;;8.85;;
32216;SDS011;67098;51.140;4.088;2023-04-28T07:36:11;10.68;;;7.00;;
32216;SDS011;67098;51.140;4.088;2023-04-28T07:38:37;9.18;;;6.25;;
32216;SDS011;67098;51.140;4.088;2023-04-28T07:41:03;6.55;;;4.63;;
32216;SDS011;67098;51.140;4.088;2023-04-28T07:43:29;6.95;;;4.22;;
32216;SDS011;67098;51.140;4.088;2023-04-28T07:45:55;4.72;;;3.60;;
32216;SDS011;67098;51.140;4.088;2023-04-28T07:48:20;4.22;;;3.20;;
32216;SDS011;67098;51.140;4.088;2023-04-28T07:50:46;4.43;;;3.47;;
32216;SDS011;67098;51.140;4.088;2023-04-28T07:53:12;5.90;;;3.72;;
32216;SDS011;67098;51.140;4.088;2023-04-28T07:55:38;5.15;;;4.10;;
32216;SDS011;67098;51.140;4.088;2023-04-28T07:58:06;5.43;;;3.63;;
32216;SDS011;67098;51.140;4.088;2023-04-28T08:00:32;4.97;;;3.03;;
32216;SDS011;67098;51.140;4.088;2023-04-28T08:02:58;4.57;;;3.20;;
32216;SDS011;67098;51.140;4.088;2023-04-28T08:05:24;4.70;;;2.88;;
32216;SDS011;67098;51.140;4.088;2023-04-28T08:07:50;3.38;;;2.67;;
32216;SDS011;67098;51.140;4.088;2023-04-28T08:10:15;5.88;;;2.63;;
32216;SDS011;67098;51.140;4.088;2023-04-28T08:12:41;2.50;;;2.13;;
32216;SDS011;67098;51.140;4.088;2023-04-28T08:15:09;2.72;;;2.42;;
32216;SDS011;67098;51.140;4.088;2023-04-28T08:17:35;2.92;;;1.90;;
32216;SDS011;67098;51.140;4.088;2023-04-28T08:20:02;3.92;;;2.60;;
32216;SDS011;67098;51.140;4.088;2023-04-28T08:22:29;2.70;;;2.45;;
32216;SDS011;67098;51.140;4.088;2023-04-28T08:24:55;5.10;;;2.30;;
32216;SDS011;67098;51.140;4.088;2023-04-28T08:27:21;4.28;;;2.55;;
32216;SDS011;67098;51.140;4.088;2023-04-28T08:29:47;3.47;;;2.22;;
32216;SDS011;67098;51.140;4.088;2023-04-28T08:32:13;5.63;;;2.80;;
32216;SDS011;67098;51.140;4.088;2023-04-28T08:34:39;5.25;;;2.38;;
32216;SDS011;67098;51.140;4.088;2023-04-28T08:37:05;3.33;;;2.40;;
32216;SDS011;67098;51.140;4.088;2023-04-28T08:39:31;4.15;;;2.72;;
32216;SDS011;67098;51.140;4.088;2023-04-28T08:41:58;2.47;;;2.28;;
32216;SDS011;67098;51.140;4.088;2023-04-28T08:44:23;3.60;;;2.47;;
32216;SDS011;67098;51.140;4.088;2023-04-28T08:46:49;4.05;;;2.88;;
32216;SDS011;67098;51.140;4.088;2023-04-28T08:51:58;3.55;;;2.60;;
32216;SDS011;67098;51.140;4.088;2023-04-28T08:54:28;4.63;;;3.38;;
32216;SDS011;67098;51.140;4.088;2023-04-28T08:56:55;5.20;;;3.38;;
32216;SDS011;67098;51.140;4.088;2023-04-28T08:59:22;4.47;;;3.20;;
32216;SDS011;67098;51.140;4.088;2023-04-28T09:01:48;2.90;;;2.60;;
32216;SDS011;67098;51.140;4.088;2023-04-28T09:04:17;4.05;;;2.80;;
32216;SDS011;67098;51.140;4.088;2023-04-28T09:06:43;4.93;;;2.90;;
32216;SDS011;67098;51.140;4.088;2023-04-28T09:11:53;2.90;;;2.30;;
32216;SDS011;67098;51.140;4.088;2023-04-28T09:14:21;2.63;;;2.17;;
32216;SDS011;67098;51.140;4.088;2023-04-28T09:16:47;6.78;;;2.30;;
32216;SDS011;67098;51.140;4.088;2023-04-28T09:19:14;3.58;;;2.10;;
32216;SDS011;67098;51.140;4.088;2023-04-28T09:21:46;5.78;;;1.98;;
32216;SDS011;67098;51.140;4.088;2023-04-28T09:26:50;4.28;;;1.70;;
32216;SDS011;67098;51.140;4.088;2023-04-28T09:29:16;4.18;;;1.88;;
32216;SDS011;67098;51.140;4.088;2023-04-28T09:31:41;3.95;;;2.00;;
32216;SDS011;67098;51.140;4.088;2023-04-28T09:34:08;2.53;;;2.03;;
32216;SDS011;67098;51.140;4.088;2023-04-28T09:36:33;2.90;;;2.10;;
32216;SDS011;67098;51.140;4.088;2023-04-28T09:39:00;3.30;;;2.28;;
32216;SDS011;67098;51.140;4.088;2023-04-28T09:44:17;4.18;;;2.38;;
32216;SDS011;67098;51.140;4.088;2023-04-28T09:46:45;3.63;;;2.38;;
32216;SDS011;67098;51.140;4.088;2023-04-28T09:49:11;3.25;;;2.53;;
32216;SDS011;67098;51.140;4.088;2023-04-28T09:51:38;2.58;;;2.05;;
32216;SDS011;67098;51.140;4.088;2023-04-28T09:54:05;5.50;;;1.60;;
32216;SDS011;67098;51.140;4.088;2023-04-28T09:56:32;2.45;;;1.60;;
32216;SDS011;67098;51.140;4.088;2023-04-28T09:59:02;2.53;;;1.23;;
32216;SDS011;67098;51.140;4.088;2023-04-28T10:01:32;1.27;;;1.17;;
32216;SDS011;67098;51.140;4.088;2023-04-28T10:04:05;3.67;;;1.20;;
32216;SDS011;67098;51.140;4.088;2023-04-28T10:06:34;3.53;;;1.17;;
32216;SDS011;67098;51.140;4.088;2023-04-28T10:09:00;2.00;;;1.33;;
32216;SDS011;67098;51.140;4.088;2023-04-28T10:11:27;3.22;;;1.38;;
32216;SDS011;67098;51.140;4.088;2023-04-28T10:13:53;2.22;;;1.67;;
32216;SDS011;67098;51.140;4.088;2023-04-28T10:16:19;4.30;;;1.48;;
32216;SDS011;67098;51.140;4.088;2023-04-28T10:18:46;2.83;;;1.55;;
32216;SDS011;67098;51.140;4.088;2023-04-28T10:21:14;5.10;;;1.50;;
32216;SDS011;67098;51.140;4.088;2023-04-28T10:24:45;3.28;;;2.40;;
32216;SDS011;67098;51.140;4.088;2023-04-28T10:29:28;3.20;;;1.83;;
32216;SDS011;67098;51.140;4.088;2023-04-28T10:34:41;9.75;;;1.80;;
32216;SDS011;67098;51.140;4.088;2023-04-28T10:37:07;2.42;;;1.52;;
32216;SDS011;67098;51.140;4.088;2023-04-28T10:39:32;4.65;;;1.55;;
32216;SDS011;67098;51.140;4.088;2023-04-28T10:41:59;4.65;;;1.98;;
32216;SDS011;67098;51.140;4.088;2023-04-28T11:00:44;6.65;;;3.25;;
32216;SDS011;67098;51.140;4.088;2023-04-28T11:08:59;3.83;;;2.42;;
32216;SDS011;67098;51.140;4.088;2023-04-28T11:11:38;4.32;;;2.08;;
32216;SDS011;67098;51.140;4.088;2023-04-28T11:19:28;2.55;;;1.83;;
32216;SDS011;67098;51.140;4.088;2023-04-28T11:22:04;4.15;;;1.40;;
32216;SDS011;67098;51.140;4.088;2023-04-28T11:24:37;6.63;;;2.45;;
32216;SDS011;67098;51.140;4.088;2023-04-28T11:27:03;3.10;;;1.52;;
32216;SDS011;67098;51.140;4.088;2023-04-28T11:29:33;2.78;;;1.77;;
32216;SDS011;67098;51.140;4.088;2023-04-28T11:32:00;4.97;;;2.28;;
32216;SDS011;67098;51.140;4.088;2023-04-28T11:34:27;3.00;;;2.05;;
32216;SDS011;67098;51.140;4.088;2023-04-28T11:36:53;3.78;;;3.22;;
32216;SDS011;67098;51.140;4.088;2023-04-28T11:39:26;4.05;;;2.95;;
32216;SDS011;67098;51.140;4.088;2023-04-28T11:41:53;8.77;;;3.65;;
32216;SDS011;67098;51.140;4.088;2023-04-28T11:44:21;5.18;;;3.55;;
32216;SDS011;67098;51.140;4.088;2023-04-28T11:49:23;4.70;;;3.63;;
32216;SDS011;67098;51.140;4.088;2023-04-28T11:51:49;6.97;;;3.58;;
32216;SDS011;67098;51.140;4.088;2023-04-28T11:54:20;5.85;;;3.55;;
32216;SDS011;67098;51.140;4.088;2023-04-28T11:56:46;6.28;;;3.55;;
32216;SDS011;67098;51.140;4.088;2023-04-28T11:59:12;4.03;;;3.30;;
32216;SDS011;67098;51.140;4.088;2023-04-28T12:01:48;5.28;;;3.08;;
32216;SDS011;67098;51.140;4.088;2023-04-28T12:09:27;5.50;;;2.47;;
32216;SDS011;67098;51.140;4.088;2023-04-28T12:11:58;2.70;;;2.10;;
32216;SDS011;67098;51.140;4.088;2023-04-28T12:14:32;4.22;;;2.20;;
32216;SDS011;67098;51.140;4.088;2023-04-28T12:17:27;2.33;;;1.90;;
32216;SDS011;67098;51.140;4.088;2023-04-28T12:19:56;4.07;;;1.65;;
32216;SDS011;67098;51.140;4.088;2023-04-28T12:22:24;3.15;;;1.92;;
32216;SDS011;67098;51.140;4.088;2023-04-28T12:25:06;2.63;;;1.92;;
32216;SDS011;67098;51.140;4.088;2023-04-28T12:27:33;4.45;;;2.42;;
32216;SDS011;67098;51.140;4.088;2023-04-28T12:30:02;2.22;;;1.90;;
32216;SDS011;67098;51.140;4.088;2023-04-28T12:32:36;2.88;;;1.73;;
32216;SDS011;67098;51.140;4.088;2023-04-28T12:35:03;4.18;;;1.52;;
32216;SDS011;67098;51.140;4.088;2023-04-28T12:37:30;3.05;;;1.60;;
32216;SDS011;67098;51.140;4.088;2023-04-28T12:39:56;1.90;;;1.58;;
32216;SDS011;67098;51.140;4.088;2023-04-28T12:42:22;3.08;;;2.10;;
32216;SDS011;67098;51.140;4.088;2023-04-28T12:44:48;4.57;;;1.83;;
32216;SDS011;67098;51.140;4.088;2023-04-28T12:47:14;2.70;;;1.75;;
32216;SDS011;67098;51.140;4.088;2023-04-28T12:49:42;3.35;;;2.00;;
32216;SDS011;67098;51.140;4.088;2023-04-28T12:52:08;2.03;;;1.63;;
32216;SDS011;67098;51.140;4.088;2023-04-28T12:54:34;3.85;;;2.10;;
32216;SDS011;67098;51.140;4.088;2023-04-28T12:57:01;3.58;;;1.92;;
32216;SDS011;67098;51.140;4.088;2023-04-28T12:59:27;2.13;;;1.42;;
32216;SDS011;67098;51.140;4.088;2023-04-28T13:01:54;2.47;;;1.70;;
32216;SDS011;67098;51.140;4.088;2023-04-28T13:04:20;1.63;;;1.27;;
32216;SDS011;67098;51.140;4.088;2023-04-28T13:06:46;2.88;;;1.23;;
32216;SDS011;67098;51.140;4.088;2023-04-28T13:09:12;3.60;;;1.65;;
32216;SDS011;67098;51.140;4.088;2023-04-28T13:11:39;2.80;;;1.88;;
32216;SDS011;67098;51.140;4.088;2023-04-28T13:14:06;3.60;;;1.50;;
32216;SDS011;67098;51.140;4.088;2023-04-28T13:16:32;2.50;;;1.63;;
32216;SDS011;67098;51.140;4.088;2023-04-28T13:18:59;2.03;;;1.48;;
32216;SDS011;67098;51.140;4.088;2023-04-28T13:21:25;3.53;;;2.13;;
32216;SDS011;67098;51.140;4.088;2023-04-28T13:23:52;7.50;;;2.03;;
32216;SDS011;67098;51.140;4.088;2023-04-28T13:26:21;2.83;;;1.75;;
32216;SDS011;67098;51.140;4.088;2023-04-28T13:28:48;3.33;;;1.92;;
32216;SDS011;67098;51.140;4.088;2023-04-28T13:31:15;3.45;;;1.48;;
32216;SDS011;67098;51.140;4.088;2023-04-28T13:33:41;4.50;;;2.10;;
32216;SDS011;67098;51.140;4.088;2023-04-28T13:36:07;3.88;;;1.90;;
32216;SDS011;67098;51.140;4.088;2023-04-28T13:38:33;2.50;;;2.10;;
32216;SDS011;67098;51.140;4.088;2023-04-28T13:40:59;6.18;;;2.50;;
32216;SDS011;67098;51.140;4.088;2023-04-28T13:43:25;6.43;;;2.80;;
32216;SDS011;67098;51.140;4.088;2023-04-28T13:45:51;4.65;;;2.67;;
32216;SDS011;67098;51.140;4.088;2023-04-28T13:48:17;4.95;;;3.10;;
32216;SDS011;67098;51.140;4.088;2023-04-28T13:50:43;4.78;;;2.72;;
32216;SDS011;67098;51.140;4.088;2023-04-28T13:53:09;4.35;;;2.92;;
32216;SDS011;67098;51.140;4.088;2023-04-28T13:55:35;3.83;;;2.95;;
32216;SDS011;67098;51.140;4.088;2023-04-28T13:58:01;7.40;;;3.47;;
32216;SDS011;67098;51.140;4.088;2023-04-28T14:00:32;4.38;;;3.63;;
32216;SDS011;67098;51.140;4.088;2023-04-28T14:02:59;5.57;;;3.45;;
32216;SDS011;67098;51.140;4.088;2023-04-28T14:05:25;5.53;;;3.50;;
32216;SDS011;67098;51.140;4.088;2023-04-28T14:07:55;6.63;;;3.95;;
32216;SDS011;67098;51.140;4.088;2023-04-28T14:10:21;6.13;;;3.67;;
32216;SDS011;67098;51.140;4.088;2023-04-28T14:12:47;6.60;;;4.05;;
32216;SDS011;67098;51.140;4.088;2023-04-28T14:15:13;9.35;;;4.97;;
32216;SDS011;67098;51.140;4.088;2023-04-28T14:17:40;7.75;;;5.35;;
32216;SDS011;67098;51.140;4.088;2023-04-28T14:20:06;9.85;;;5.45;;
32216;SDS011;67098;51.140;4.088;2023-04-28T14:22:35;9.18;;;5.53;;
32216;SDS011;67098;51.140;4.088;2023-04-28T14:25:02;9.52;;;6.03;;
32216;SDS011;67098;51.140;4.088;2023-04-28T14:27:28;9.27;;;6.03;;
32216;SDS011;67098;51.140;4.088;2023-04-28T14:29:54;8.20;;;5.25;;
32216;SDS011;67098;51.140;4.088;2023-04-28T14:32:19;9.00;;;6.07;;
32216;SDS011;67098;51.140;4.088;2023-04-28T14:34:48;8.02;;;5.55;;
32216;SDS011;67098;51.140;4.088;2023-04-28T14:37:15;8.98;;;4.95;;
32216;SDS011;67098;51.140;4.088;2023-04-28T14:39:42;7.70;;;4.57;;
32216;SDS011;67098;51.140;4.088;2023-04-28T14:42:08;7.53;;;4.80;;
32216;SDS011;67098;51.140;4.088;2023-04-28T14:44:34;6.68;;;4.28;;
32216;SDS011;67098;51.140;4.088;2023-04-28T14:47:00;5.97;;;4.18;;
32216;SDS011;67098;51.140;4.088;2023-04-28T14:49:27;5.03;;;3.33;;
32216;SDS011;67098;51.140;4.088;2023-04-28T14:51:53;4.63;;;3.55;;
32216;SDS011;67098;51.140;4.088;2023-04-28T14:54:19;3.58;;;3.17;;
32216;SDS011;67098;51.140;4.088;2023-04-28T14:56:46;4.32;;;3.25;;
32216;SDS011;67098;51.140;4.088;2023-04-28T14:59:14;3.30;;;2.63;;
32216;SDS011;67098;51.140;4.088;2023-04-28T15:01:40;4.47;;;2.80;;
32216;SDS011;67098;51.140;4.088;2023-04-28T15:04:06;4.57;;;2.55;;
32216;SDS011;67098;51.140;4.088;2023-04-28T15:06:33;2.35;;;2.00;;
32216;SDS011;67098;51.140;4.088;2023-04-28T15:09:00;2.35;;;1.95;;
32216;SDS011;67098;51.140;4.088;2023-04-28T15:11:25;3.15;;;2.13;;
32216;SDS011;67098;51.140;4.088;2023-04-28T15:13:51;3.00;;;2.53;;
32216;SDS011;67098;51.140;4.088;2023-04-28T15:16:17;3.13;;;1.95;;
32216;SDS011;67098;51.140;4.088;2023-04-28T15:18:43;2.58;;;1.50;;
32216;SDS011;67098;51.140;4.088;2023-04-28T15:21:10;2.95;;;1.88;;